createdAt,value
2023-09-08T00:02:28.852Z,5.90
2023-09-08T00:04:55.791Z,6.07
2023-09-08T00:07:22.392Z,6.00
2023-09-08T00:09:48.949Z,6.63
2023-09-08T00:12:15.502Z,6.53
2023-09-08T00:14:42.054Z,6.60
2023-09-08T00:17:08.691Z,5.88
2023-09-08T00:19:35.305Z,6.25
2023-09-08T00:22:01.913Z,5.85
2023-09-08T00:24:28.379Z,6.07
2023-09-08T00:26:54.994Z,6.18
2023-09-08T00:29:21.451Z,6.00
2023-09-08T00:31:47.926Z,6.18
2023-09-08T00:34:14.408Z,6.82
2023-09-08T00:36:40.977Z,6.65
2023-09-08T00:39:07.405Z,6.47
2023-09-08T00:41:34.515Z,6.45
2023-09-08T00:44:01.042Z,6.15
2023-09-08T00:46:29.503Z,6.40
2023-09-08T00:48:57.117Z,6.38
2023-09-08T00:51:23.642Z,5.53
2023-09-08T00:53:51.138Z,6.57
2023-09-08T00:56:17.776Z,6.10
2023-09-08T00:58:44.638Z,6.35
2023-09-08T01:01:11.155Z,6.25
2023-09-08T01:03:37.946Z,6.20
2023-09-08T01:06:05.243Z,6.60
2023-09-08T01:08:32.136Z,6.05
2023-09-08T01:10:59.023Z,6.05
2023-09-08T01:13:25.557Z,5.85
2023-09-08T01:15:52.064Z,5.90
2023-09-08T01:18:18.624Z,6.10
2023-09-08T01:20:57.348Z,5.80
2023-09-08T01:23:47.123Z,6.00
2023-09-08T01:26:19.721Z,6.00
2023-09-08T01:28:50.889Z,6.80
2023-09-08T01:31:18.495Z,6.20
2023-09-08T01:33:46.522Z,6.60
2023-09-08T01:36:14.606Z,6.57
2023-09-08T01:38:43.305Z,7.05
2023-09-08T01:41:10.618Z,6.30
2023-09-08T01:43:37.280Z,7.03
2023-09-08T01:46:03.970Z,6.82
2023-09-08T01:53:46.829Z,6.90
2023-09-08T01:56:13.329Z,6.60
2023-09-08T01:58:39.832Z,6.88
2023-09-08T02:01:07.037Z,7.00
2023-09-08T02:03:34.148Z,6.72
2023-09-08T02:06:01.038Z,6.72
2023-09-08T02:08:27.507Z,6.50
2023-09-08T02:10:53.981Z,6.82
2023-09-08T02:13:20.484Z,7.25
2023-09-08T02:15:47.056Z,6.45
2023-09-08T02:18:14.345Z,6.60
2023-09-08T02:20:40.949Z,6.97
2023-09-08T02:23:08.796Z,6.70
2023-09-08T02:25:35.488Z,5.93
2023-09-08T02:28:02.267Z,6.07
2023-09-08T02:30:28.809Z,5.45
2023-09-08T02:32:56.318Z,6.35
2023-09-08T02:35:25.658Z,5.95
2023-09-08T02:37:52.255Z,5.80
2023-09-08T02:40:20.146Z,6.05
2023-09-08T02:42:46.673Z,6.18
2023-09-08T02:45:13.262Z,5.85
2023-09-08T02:47:39.805Z,5.78
2023-09-08T02:50:06.588Z,6.20
2023-09-08T02:52:33.010Z,6.40
2023-09-08T02:54:59.417Z,6.78
2023-09-08T02:57:25.861Z,6.85
2023-09-08T02:59:52.533Z,6.90
2023-09-08T03:02:19.134Z,7.32
2023-09-08T03:04:45.707Z,6.93
2023-09-08T03:07:12.204Z,7.53
2023-09-08T03:09:39.734Z,7.95
2023-09-08T03:12:06.314Z,8.15
2023-09-08T03:14:32.734Z,8.10
2023-09-08T03:16:59.277Z,7.47
2023-09-08T03:19:25.724Z,7.38
2023-09-08T03:21:52.286Z,6.00
2023-09-08T03:24:18.777Z,5.90
2023-09-08T03:26:45.329Z,5.90
2023-09-08T03:29:11.967Z,6.88
2023-09-08T03:31:38.516Z,6.88
2023-09-08T03:34:05.208Z,7.40
2023-09-08T03:36:32.180Z,6.82
2023-09-08T03:38:59.273Z,6.07
2023-09-08T03:41:26.341Z,6.22
2023-09-08T03:43:52.763Z,6.47
2023-09-08T03:46:19.313Z,6.72
2023-09-08T03:48:45.891Z,7.22
2023-09-08T03:51:12.376Z,7.20
2023-09-08T03:53:39.155Z,7.43
2023-09-08T03:56:06.004Z,6.93
2023-09-08T03:58:32.486Z,7.00
2023-09-08T04:00:59.200Z,7.03
2023-09-08T04:03:27.104Z,7.43
2023-09-08T04:05:53.993Z,7.45
2023-09-08T04:08:20.436Z,7.13
2023-09-08T04:10:46.898Z,8.05
2023-09-08T04:13:13.327Z,7.53
2023-09-08T04:15:39.906Z,7.45
2023-09-08T04:18:07.451Z,7.50
2023-09-08T04:20:34.859Z,7.38
2023-09-08T04:23:01.281Z,7.93
2023-09-08T04:25:27.761Z,9.02
2023-09-08T04:27:54.190Z,8.65
2023-09-08T04:30:20.723Z,8.13
2023-09-08T04:32:47.305Z,8.13
2023-09-08T04:35:13.858Z,8.50
2023-09-08T04:37:41.144Z,7.93
2023-09-08T04:40:11.009Z,8.05
2023-09-08T04:42:37.639Z,8.15
2023-09-08T04:45:04.689Z,8.35
2023-09-08T04:47:31.493Z,7.72
2023-09-08T04:49:58.005Z,7.53
2023-09-08T04:52:24.449Z,7.30
2023-09-08T04:54:50.856Z,7.32
2023-09-08T04:57:23.447Z,7.07
2023-09-08T04:59:51.017Z,7.55
2023-09-08T05:02:19.324Z,6.57
2023-09-08T05:04:45.950Z,6.03
2023-09-08T05:07:14.352Z,6.95
2023-09-08T05:09:40.986Z,6.90
2023-09-08T05:12:07.710Z,6.50
2023-09-08T05:14:34.229Z,6.80
2023-09-08T05:17:00.754Z,6.78
2023-09-08T05:19:27.211Z,6.72
2023-09-08T05:21:56.054Z,6.90
2023-09-08T05:24:22.872Z,7.20
2023-09-08T05:26:49.569Z,7.72
2023-09-08T05:29:16.124Z,7.63
2023-09-08T05:31:43.026Z,7.18
2023-09-08T05:34:09.472Z,6.78
2023-09-08T05:36:39.047Z,7.13
2023-09-08T05:39:06.431Z,7.43
2023-09-08T05:41:34.816Z,7.55
2023-09-08T05:44:01.866Z,7.43
2023-09-08T05:46:28.498Z,8.75
2023-09-08T05:48:54.987Z,7.53
2023-09-08T05:51:21.493Z,8.50
2023-09-08T05:53:48.584Z,8.43
2023-09-08T05:56:15.140Z,8.40
2023-09-08T05:58:41.616Z,10.50
2023-09-08T06:01:08.512Z,9.70
2023-09-08T06:03:35.368Z,9.80
2023-09-08T06:06:01.910Z,9.52
2023-09-08T06:08:28.345Z,10.13
2023-09-08T06:10:54.779Z,10.30
2023-09-08T06:13:22.003Z,11.25
2023-09-08T06:15:48.507Z,10.45
2023-09-08T06:18:15.067Z,9.85
2023-09-08T06:20:46.105Z,12.20
2023-09-08T06:23:12.587Z,10.15
2023-09-08T06:25:39.133Z,11.30
2023-09-08T06:28:05.761Z,10.32
2023-09-08T06:30:32.335Z,9.43
2023-09-08T06:33:00.111Z,9.82
2023-09-08T06:35:27.518Z,9.20
2023-09-08T06:37:53.986Z,9.40
2023-09-08T06:40:20.492Z,9.43
2023-09-08T06:42:47.073Z,9.25
2023-09-08T06:45:15.115Z,9.45
2023-09-08T06:47:41.682Z,9.43
2023-09-08T06:50:08.529Z,9.68
2023-09-08T06:52:34.970Z,9.80
2023-09-08T06:55:01.508Z,11.13
2023-09-08T06:57:28.015Z,10.25
2023-09-08T06:59:54.453Z,9.75
2023-09-08T07:02:21.021Z,10.02
2023-09-08T07:04:48.566Z,9.77
2023-09-08T07:07:15.209Z,10.55
2023-09-08T07:09:41.685Z,10.82
2023-09-08T07:12:08.308Z,10.10
2023-09-08T07:14:34.758Z,12.50
2023-09-08T07:17:01.397Z,11.15
2023-09-08T07:19:28.594Z,11.30
2023-09-08T07:21:55.375Z,11.43
2023-09-08T07:24:23.056Z,9.63
2023-09-08T07:26:51.795Z,10.32
2023-09-08T07:29:19.690Z,12.20
2023-09-08T07:31:46.246Z,13.75
2023-09-08T07:34:12.749Z,11.80
2023-09-08T07:36:39.659Z,10.63
2023-09-08T07:39:06.328Z,11.35
2023-09-08T07:41:32.844Z,10.13
2023-09-08T07:43:59.456Z,11.95
2023-09-08T07:46:26.186Z,10.48
2023-09-08T07:48:53.593Z,10.23
2023-09-08T07:51:20.176Z,10.30
2023-09-08T07:53:46.983Z,9.10
2023-09-08T07:56:13.639Z,11.60
2023-09-08T07:58:40.906Z,10.50
2023-09-08T08:01:07.536Z,10.10
2023-09-08T08:03:36.014Z,11.15
2023-09-08T08:08:40.151Z,11.27
2023-09-08T08:11:14.585Z,11.15
2023-09-08T08:13:41.070Z,12.43
2023-09-08T08:16:08.661Z,12.73
2023-09-08T08:18:35.640Z,14.50
2023-09-08T08:21:04.436Z,12.00
2023-09-08T08:23:32.081Z,11.23
2023-09-08T08:25:59.923Z,12.60
2023-09-08T08:28:26.952Z,11.70
2023-09-08T08:30:53.580Z,10.23
2023-09-08T08:33:22.107Z,10.90
2023-09-08T08:35:52.244Z,10.55
2023-09-08T08:38:18.969Z,9.43
2023-09-08T08:40:45.631Z,9.40
2023-09-08T08:43:12.387Z,8.85
2023-09-08T08:45:42.913Z,10.10
2023-09-08T08:48:10.074Z,10.50
2023-09-08T08:50:38.583Z,9.32
2023-09-08T08:53:05.441Z,9.15
2023-09-08T08:55:32.177Z,10.70
2023-09-08T08:58:06.925Z,10.55
2023-09-08T09:00:39.741Z,9.02
2023-09-08T09:03:15.261Z,9.45
2023-09-08T09:05:46.809Z,9.38
2023-09-08T09:08:17.932Z,9.05
2023-09-08T09:10:46.224Z,9.95
2023-09-08T09:13:12.666Z,10.95
2023-09-08T09:15:41.520Z,9.30
2023-09-08T09:18:09.272Z,10.32
2023-09-08T09:20:37.173Z,10.48
2023-09-08T09:23:04.547Z,11.55
2023-09-08T09:25:33.562Z,10.70
2023-09-08T09:28:02.725Z,10.80
2023-09-08T09:30:48.720Z,12.20
2023-09-08T09:33:15.576Z,11.48
2023-09-08T09:35:47.091Z,10.50
2023-09-08T09:38:15.463Z,9.63
2023-09-08T09:40:42.070Z,9.10
2023-09-08T09:43:09.254Z,10.50
2023-09-08T09:45:37.391Z,8.55
2023-09-08T09:48:05.646Z,10.60
2023-09-08T09:50:41.063Z,8.88
2023-09-08T09:53:13.887Z,9.50
2023-09-08T09:55:43.894Z,8.60
2023-09-08T09:58:13.852Z,8.70
2023-09-08T10:00:48.618Z,9.27
2023-09-08T10:03:19.648Z,8.23
2023-09-08T10:05:49.232Z,8.00
2023-09-08T10:08:15.872Z,8.50
2023-09-08T10:10:47.218Z,8.90
2023-09-08T10:13:16.801Z,7.65
2023-09-08T10:15:43.570Z,7.53
2023-09-08T10:18:13.295Z,7.97
2023-09-08T10:20:41.635Z,7.78
2023-09-08T10:23:19.891Z,8.15
2023-09-08T10:25:55.190Z,7.65
2023-09-08T10:28:28.881Z,7.80
2023-09-08T10:30:57.002Z,7.15
2023-09-08T10:33:27.661Z,6.68
2023-09-08T10:35:56.107Z,7.70
2023-09-08T10:38:25.550Z,7.40
2023-09-08T10:41:11.367Z,7.20
2023-09-08T10:43:38.921Z,7.17
2023-09-08T10:46:12.779Z,6.80
2023-09-08T10:48:45.878Z,6.60
2023-09-08T10:51:16.041Z,7.10
2023-09-08T10:53:42.578Z,6.75
2023-09-08T10:56:17.823Z,7.05
2023-09-08T10:58:51.653Z,6.93
2023-09-08T11:01:20.467Z,7.85
2023-09-08T11:03:50.995Z,6.93
2023-09-08T11:06:23.464Z,6.88
2023-09-08T11:08:54.483Z,6.65
2023-09-08T11:11:21.234Z,8.48
2023-09-08T11:13:49.914Z,7.15
2023-09-08T11:16:17.033Z,7.18
2023-09-08T11:18:44.921Z,7.15
2023-09-08T11:21:12.284Z,7.18
2023-09-08T11:23:40.162Z,6.65
2023-09-08T11:26:09.985Z,7.20
2023-09-08T11:28:37.521Z,7.03
2023-09-08T11:31:04.749Z,7.72
2023-09-08T11:33:42.327Z,6.82
2023-09-08T11:36:20.463Z,7.13
2023-09-08T11:38:49.269Z,6.68
2023-09-08T11:41:15.845Z,6.90
2023-09-08T11:43:42.719Z,6.35
2023-09-08T11:46:11.805Z,6.45
2023-09-08T11:48:38.999Z,6.50
2023-09-08T11:51:08.095Z,6.07
2023-09-08T11:53:34.784Z,6.43
2023-09-08T11:56:01.644Z,7.30
2023-09-08T11:58:28.518Z,6.10
2023-09-08T12:00:55.152Z,6.18
2023-09-08T12:03:22.783Z,6.38
2023-09-08T12:05:53.422Z,5.97
2023-09-08T12:08:20.298Z,5.60
2023-09-08T12:10:50.846Z,6.20
2023-09-08T12:13:24.801Z,5.70
2023-09-08T12:15:51.491Z,5.43
2023-09-08T12:18:18.147Z,5.30
2023-09-08T12:21:06.023Z,6.00
2023-09-08T12:23:32.540Z,5.35
2023-09-08T12:25:59.108Z,5.70
2023-09-08T12:28:31.621Z,5.60
2023-09-08T12:30:58.136Z,5.72
2023-09-08T12:33:27.396Z,5.97
2023-09-08T12:35:54.830Z,5.90
2023-09-08T12:38:24.492Z,5.60
2023-09-08T12:40:50.990Z,5.97
2023-09-08T12:43:26.741Z,6.10
2023-09-08T12:45:54.988Z,5.57
2023-09-08T12:48:21.817Z,5.80
2023-09-08T12:50:49.905Z,5.25
2023-09-08T12:53:18.866Z,5.47
2023-09-08T12:55:45.400Z,5.28
2023-09-08T12:58:11.824Z,5.18
2023-09-08T13:00:45.268Z,5.80
2023-09-08T13:03:11.806Z,5.30
2023-09-08T13:05:39.848Z,5.40
2023-09-08T13:08:06.921Z,4.85
2023-09-08T13:10:33.420Z,5.30
2023-09-08T13:12:59.903Z,4.93
2023-09-08T13:15:26.402Z,5.35
2023-09-08T13:17:52.905Z,5.53
2023-09-08T13:20:21.546Z,5.00
2023-09-08T13:22:48.416Z,5.20
2023-09-08T13:25:15.199Z,5.32
2023-09-08T13:27:42.291Z,4.88
2023-09-08T13:30:16.210Z,5.22
2023-09-08T13:32:43.881Z,4.97
2023-09-08T13:35:16.495Z,4.95
2023-09-08T13:37:43.608Z,5.28
2023-09-08T13:40:10.468Z,5.20
2023-09-08T13:42:37.307Z,5.15
2023-09-08T13:45:04.770Z,4.88
2023-09-08T13:47:32.322Z,5.20
2023-09-08T13:50:01.751Z,5.18
2023-09-08T13:52:31.973Z,4.65
2023-09-08T13:57:29.646Z,5.30
2023-09-08T13:59:57.668Z,5.28
2023-09-08T14:04:55.766Z,5.13
2023-09-08T14:07:27.762Z,5.25
2023-09-08T14:12:34.258Z,5.28
2023-09-08T14:15:02.620Z,5.03
2023-09-08T14:17:29.113Z,4.97
2023-09-08T14:19:55.631Z,4.97
2023-09-08T14:22:22.124Z,5.22
2023-09-08T14:24:48.737Z,5.32
2023-09-08T14:27:15.290Z,5.43
2023-09-08T14:29:41.725Z,4.90
2023-09-08T14:32:08.155Z,4.95
2023-09-08T14:34:41.566Z,5.13
2023-09-08T14:37:11.059Z,4.95
2023-09-08T14:39:38.253Z,5.20
2023-09-08T14:42:06.025Z,4.90
2023-09-08T14:44:32.521Z,4.88
2023-09-08T14:46:58.987Z,5.53
2023-09-08T14:49:25.430Z,5.03
2023-09-08T14:51:51.899Z,5.10
2023-09-08T14:54:19.285Z,4.90
2023-09-08T14:56:45.725Z,5.70
2023-09-08T14:59:12.159Z,4.57
2023-09-08T15:01:41.719Z,5.05
2023-09-08T15:04:08.401Z,4.85
2023-09-08T15:06:34.976Z,5.05
2023-09-08T15:09:01.435Z,5.28
2023-09-08T15:11:28.062Z,5.03
2023-09-08T15:13:54.652Z,5.13
2023-09-08T15:16:22.398Z,5.32
2023-09-08T15:18:49.016Z,5.75
2023-09-08T15:21:15.592Z,5.13
2023-09-08T15:23:42.160Z,5.13
2023-09-08T15:26:08.712Z,5.30
2023-09-08T15:28:37.324Z,5.10
2023-09-08T15:31:04.180Z,5.20
2023-09-08T15:33:30.920Z,5.43
2023-09-08T15:35:57.646Z,4.97
2023-09-08T15:38:24.153Z,5.43
2023-09-08T15:41:09.124Z,4.80
2023-09-08T15:43:38.524Z,5.45
2023-09-08T15:46:09.044Z,4.82
2023-09-08T15:48:35.930Z,4.90
2023-09-08T15:51:02.545Z,5.30
2023-09-08T15:53:29.076Z,4.95
2023-09-08T15:55:56.194Z,5.15
2023-09-08T15:58:22.833Z,5.22
2023-09-08T16:00:51.478Z,5.40
2023-09-08T16:03:18.220Z,5.20
2023-09-08T16:05:44.801Z,5.30
2023-09-08T16:08:11.251Z,5.40
2023-09-08T16:10:37.654Z,5.22
2023-09-08T16:13:04.482Z,4.65
2023-09-08T16:15:31.101Z,4.55
2023-09-08T16:18:00.180Z,5.00
2023-09-08T16:20:26.754Z,4.97
2023-09-08T16:22:53.284Z,5.03
2023-09-08T16:25:19.696Z,5.28
2023-09-08T16:27:46.583Z,5.30
2023-09-08T16:30:13.565Z,5.30
2023-09-08T16:32:41.043Z,4.80
2023-09-08T16:35:08.208Z,5.43
2023-09-08T16:37:34.844Z,4.63
2023-09-08T16:40:01.437Z,5.07
2023-09-08T16:42:28.070Z,5.47
2023-09-08T16:44:54.614Z,5.30
2023-09-08T16:47:21.607Z,5.53
2023-09-08T16:49:48.138Z,5.50
2023-09-08T16:52:14.594Z,5.07
2023-09-08T16:54:41.071Z,5.47
2023-09-08T16:57:07.601Z,5.57
2023-09-08T16:59:34.135Z,6.05
2023-09-08T17:02:00.610Z,5.60
2023-09-08T17:04:28.103Z,5.32
2023-09-08T17:06:54.787Z,5.55
2023-09-08T17:09:21.252Z,5.53
2023-09-08T17:11:47.816Z,5.70
2023-09-08T17:14:14.263Z,5.70
2023-09-08T17:16:40.717Z,5.80
2023-09-08T17:19:07.257Z,6.07
2023-09-08T17:21:33.695Z,6.15
2023-09-08T17:24:00.169Z,6.10
2023-09-08T17:26:26.673Z,6.60
2023-09-08T17:28:53.140Z,5.70
2023-09-08T17:31:19.591Z,6.10
2023-09-08T17:33:46.113Z,6.40
2023-09-08T17:36:12.676Z,6.15
2023-09-08T17:38:39.181Z,6.45
2023-09-08T17:41:05.689Z,6.13
2023-09-08T17:43:32.169Z,6.43
2023-09-08T17:46:04.638Z,6.47
2023-09-08T17:48:31.806Z,6.70
2023-09-08T17:50:58.386Z,7.13
2023-09-08T17:53:24.845Z,7.38
2023-09-08T17:55:51.281Z,7.00
2023-09-08T17:58:17.731Z,7.18
2023-09-08T18:00:44.221Z,6.97
2023-09-08T18:03:14.504Z,7.72
2023-09-08T18:05:42.787Z,7.65
2023-09-08T18:08:09.319Z,6.82
2023-09-08T18:10:35.836Z,7.03
2023-09-08T18:13:02.391Z,6.75
2023-09-08T18:15:28.903Z,7.63
2023-09-08T18:17:55.367Z,7.22
2023-09-08T18:20:21.869Z,7.50
2023-09-08T18:22:48.320Z,7.78
2023-09-08T18:25:14.825Z,7.53
2023-09-08T18:27:41.309Z,7.43
2023-09-08T18:30:08.179Z,7.50
2023-09-08T18:32:35.017Z,7.40
2023-09-08T18:35:01.476Z,7.72
2023-09-08T18:37:27.928Z,7.50
2023-09-08T18:39:54.556Z,7.35
2023-09-08T18:42:20.994Z,8.10
2023-09-08T18:44:47.478Z,8.45
2023-09-08T18:47:13.927Z,8.40
2023-09-08T18:49:40.563Z,8.05
2023-09-08T18:52:07.050Z,8.15
2023-09-08T18:54:33.646Z,8.07
2023-09-08T18:57:00.226Z,7.97
2023-09-08T18:59:26.685Z,8.02
2023-09-08T19:01:54.617Z,8.43
2023-09-08T19:04:21.141Z,8.45
2023-09-08T19:06:47.578Z,8.18
2023-09-08T19:09:14.025Z,8.48
2023-09-08T19:11:40.509Z,8.70
2023-09-08T19:14:10.304Z,8.23
2023-09-08T19:16:36.849Z,8.82
2023-09-08T19:19:03.418Z,8.55
2023-09-08T19:21:29.914Z,8.63
2023-09-08T19:23:56.375Z,8.43
2023-09-08T19:26:22.786Z,8.40
2023-09-08T19:28:53.307Z,8.68
2023-09-08T19:31:19.921Z,9.00
2023-09-08T19:33:46.644Z,10.18
2023-09-08T19:36:13.125Z,8.70
2023-09-08T19:38:39.608Z,9.43
2023-09-08T19:41:08.232Z,8.68
2023-09-08T19:43:35.057Z,8.35
2023-09-08T19:46:05.585Z,8.45
2023-09-08T19:48:34.867Z,8.77
2023-09-08T19:51:08.067Z,9.35
2023-09-08T19:53:34.865Z,8.57
2023-09-08T19:56:02.832Z,8.90
2023-09-08T19:58:29.780Z,8.52
2023-09-08T20:01:05.051Z,8.45
2023-09-08T20:03:31.733Z,8.75
2023-09-08T20:05:58.377Z,8.68
2023-09-08T20:08:25.815Z,8.57
2023-09-08T20:10:53.854Z,8.63
2023-09-08T20:13:21.377Z,8.63
2023-09-08T20:15:58.156Z,8.50
2023-09-08T20:18:24.746Z,8.63
2023-09-08T20:20:55.572Z,8.93
2023-09-08T20:23:22.674Z,8.52
2023-09-08T20:25:49.147Z,9.38
2023-09-08T20:28:15.688Z,8.40
2023-09-08T20:30:42.393Z,8.82
2023-09-08T20:33:08.900Z,8.70
2023-09-08T20:35:36.880Z,8.60
2023-09-08T20:38:04.621Z,8.85
2023-09-08T20:40:31.544Z,8.07
2023-09-08T20:42:58.681Z,8.68
2023-09-08T20:45:25.244Z,8.63
2023-09-08T20:47:51.791Z,8.18
2023-09-08T20:50:18.570Z,8.05
2023-09-08T20:52:45.058Z,8.32
2023-09-08T20:55:11.642Z,8.70
2023-09-08T20:57:38.491Z,8.50
2023-09-08T21:00:05.433Z,8.25
2023-09-08T21:02:32.142Z,8.15
2023-09-08T21:04:58.736Z,8.80
2023-09-08T21:39:41.024Z,11.65
2023-09-08T21:42:08.637Z,10.23
2023-09-08T21:44:35.184Z,9.85
2023-09-08T21:47:05.388Z,10.48
2023-09-08T21:49:32.484Z,10.65
2023-09-08T21:52:02.242Z,10.82
2023-09-08T21:54:28.811Z,11.02
2023-09-08T21:56:55.354Z,10.25
2023-09-08T21:59:21.851Z,10.18
2023-09-08T22:01:48.374Z,10.88
2023-09-08T22:04:15.134Z,10.90
2023-09-08T22:06:43.854Z,11.57
2023-09-08T22:09:10.559Z,10.32
2023-09-08T22:11:37.052Z,9.85
2023-09-08T22:14:03.767Z,10.45
2023-09-08T22:16:32.376Z,10.52
2023-09-08T22:18:59.671Z,10.68
2023-09-08T22:21:26.196Z,9.68
2023-09-08T22:23:53.872Z,9.98
2023-09-08T22:26:22.044Z,9.70
2023-09-08T22:28:48.939Z,10.35
2023-09-08T22:31:16.123Z,10.43
2023-09-08T22:33:43.535Z,10.05
2023-09-08T22:36:10.459Z,9.15
2023-09-08T22:38:37.688Z,9.55
2023-09-08T22:41:04.164Z,9.50
2023-09-08T22:43:30.588Z,9.10
2023-09-08T22:45:57.074Z,9.25
2023-09-08T22:48:24.275Z,9.35
2023-09-08T22:50:51.063Z,9.13
2023-09-08T22:53:18.380Z,9.18
2023-09-08T22:55:46.275Z,9.40
2023-09-08T22:58:16.113Z,10.15
2023-09-08T23:00:42.848Z,10.23
2023-09-08T23:03:09.941Z,9.68
2023-09-08T23:05:36.499Z,10.80
2023-09-08T23:08:03.244Z,10.02
2023-09-08T23:10:29.753Z,10.10
2023-09-08T23:12:56.302Z,10.30
2023-09-08T23:15:23.500Z,9.68
2023-09-08T23:17:49.971Z,10.18
2023-09-08T23:20:16.633Z,9.55
2023-09-08T23:22:44.826Z,10.80
2023-09-08T23:25:11.744Z,10.38
2023-09-08T23:27:38.683Z,10.27
2023-09-08T23:30:06.205Z,10.75
2023-09-08T23:32:32.877Z,9.82
2023-09-08T23:35:00.419Z,9.45
2023-09-08T23:37:26.970Z,9.65
2023-09-08T23:39:53.449Z,9.82
2023-09-08T23:42:20.422Z,9.40
2023-09-08T23:44:46.923Z,10.00
2023-09-08T23:47:13.799Z,9.77
2023-09-08T23:49:40.431Z,9.15
2023-09-08T23:52:06.875Z,9.93
2023-09-08T23:54:33.372Z,9.63
2023-09-08T23:57:00.708Z,9.68
2023-09-08T23:59:27.383Z,10.07
